sensor_id;sensor_type;location;lat;lon;timestamp;P1;durP1;ratioP1;P2;durP2;ratioP2
81901;SDS011;71369;50.796;3.290;2023-11-18T07:05:10;18.60;;;7.80;;
81901;SDS011;71369;50.796;3.290;2023-11-18T07:07:40;20.30;;;7.50;;
81901;SDS011;71369;50.796;3.290;2023-11-18T07:10:09;21.77;;;7.25;;
81901;SDS011;71369;50.796;3.290;2023-11-18T07:12:38;15.88;;;6.50;;
81901;SDS011;71369;50.796;3.290;2023-11-18T07:15:04;14.77;;;6.53;;
81901;SDS011;71369;50.796;3.290;2023-11-18T07:17:30;19.50;;;7.35;;
81901;SDS011;71369;50.796;3.290;2023-11-18T07:19:59;14.82;;;7.05;;
81901;SDS011;71369;50.796;3.290;2023-11-18T07:22:27;15.80;;;6.60;;
81901;SDS011;71369;50.796;3.290;2023-11-18T07:24:52;14.63;;;6.95;;
81901;SDS011;71369;50.796;3.290;2023-11-18T07:27:18;17.52;;;6.47;;
81901;SDS011;71369;50.796;3.290;2023-11-18T07:29:44;20.75;;;7.95;;
81901;SDS011;71369;50.796;3.290;2023-11-18T07:32:12;14.98;;;7.68;;
81901;SDS011;71369;50.796;3.290;2023-11-18T07:34:57;13.07;;;6.35;;
81901;SDS011;71369;50.796;3.290;2023-11-18T07:38:05;13.52;;;6.55;;
81901;SDS011;71369;50.796;3.290;2023-11-18T07:52:42;13.60;;;6.03;;
81901;SDS011;71369;50.796;3.290;2023-11-18T07:55:30;12.57;;;6.85;;
81901;SDS011;71369;50.796;3.290;2023-11-18T07:58:45;15.77;;;6.63;;
81901;SDS011;71369;50.796;3.290;2023-11-18T08:05:17;14.00;;;6.72;;
81901;SDS011;71369;50.796;3.290;2023-11-18T08:14:38;12.05;;;5.85;;
81901;SDS011;71369;50.796;3.290;2023-11-18T08:17:15;11.52;;;5.82;;
81901;SDS011;71369;50.796;3.290;2023-11-18T08:20:13;15.70;;;6.03;;
81901;SDS011;71369;50.796;3.290;2023-11-18T08:23:02;23.50;;;7.70;;
81901;SDS011;71369;50.796;3.290;2023-11-18T08:29:26;13.38;;;7.10;;
81901;SDS011;71369;50.796;3.290;2023-11-18T08:34:37;16.83;;;6.80;;
81901;SDS011;71369;50.796;3.290;2023-11-18T08:43:20;12.13;;;5.57;;
81901;SDS011;71369;50.796;3.290;2023-11-18T08:49:44;11.77;;;6.77;;
81901;SDS011;71369;50.796;3.290;2023-11-18T08:52:19;12.93;;;7.32;;
81901;SDS011;71369;50.796;3.290;2023-11-18T08:55:24;13.02;;;5.85;;
81901;SDS011;71369;50.796;3.290;2023-11-18T09:05:07;16.30;;;6.80;;
81901;SDS011;71369;50.796;3.290;2023-11-18T09:11:05;12.00;;;5.70;;
81901;SDS011;71369;50.796;3.290;2023-11-18T09:13:50;15.90;;;6.63;;
81901;SDS011;71369;50.796;3.290;2023-11-18T09:16:21;9.35;;;6.60;;
81901;SDS011;71369;50.796;3.290;2023-11-18T09:19:03;13.25;;;6.45;;
81901;SDS011;71369;50.796;3.290;2023-11-18T09:24:59;13.60;;;6.57;;
81901;SDS011;71369;50.796;3.290;2023-11-18T09:27:57;8.50;;;6.03;;
81901;SDS011;71369;50.796;3.290;2023-11-18T09:30:57;12.10;;;5.85;;
81901;SDS011;71369;50.796;3.290;2023-11-18T09:36:45;11.10;;;6.10;;
81901;SDS011;71369;50.796;3.290;2023-11-18T09:39:41;11.75;;;6.55;;
81901;SDS011;71369;50.796;3.290;2023-11-18T09:42:10;11.38;;;6.18;;
81901;SDS011;71369;50.796;3.290;2023-11-18T09:44:49;13.25;;;5.53;;
81901;SDS011;71369;50.796;3.290;2023-11-18T09:47:45;11.68;;;5.50;;
81901;SDS011;71369;50.796;3.290;2023-11-18T09:50:21;12.70;;;5.10;;
81901;SDS011;71369;50.796;3.290;2023-11-18T09:53:10;8.85;;;5.50;;
81901;SDS011;71369;50.796;3.290;2023-11-18T09:55:42;9.40;;;5.32;;
81901;SDS011;71369;50.796;3.290;2023-11-18T09:58:25;9.32;;;5.82;;
81901;SDS011;71369;50.796;3.290;2023-11-18T10:01:02;11.70;;;5.07;;
81901;SDS011;71369;50.796;3.290;2023-11-18T10:03:41;9.10;;;5.32;;
81901;SDS011;71369;50.796;3.290;2023-11-18T10:09:57;8.27;;;4.85;;
81901;SDS011;71369;50.796;3.290;2023-11-18T10:12:23;13.73;;;5.43;;
81901;SDS011;71369;50.796;3.290;2023-11-18T10:15:03;7.28;;;4.53;;
81901;SDS011;71369;50.796;3.290;2023-11-18T18:19:39;10.32;;;7.75;;
81901;SDS011;71369;50.796;3.290;2023-11-18T18:22:19;11.70;;;7.60;;
81901;SDS011;71369;50.796;3.290;2023-11-18T18:31:49;10.10;;;7.07;;
81901;SDS011;71369;50.796;3.290;2023-11-18T18:34:23;11.40;;;7.45;;
81901;SDS011;71369;50.796;3.290;2023-11-18T18:41:36;11.82;;;9.07;;
81901;SDS011;71369;50.796;3.290;2023-11-18T18:44:48;13.45;;;8.23;;
81901;SDS011;71369;50.796;3.290;2023-11-18T18:47:32;13.60;;;9.02;;
